createdAt,value
2022-10-23T00:01:36.646Z,8.02
2022-10-23T00:04:20.537Z,8.01
2022-10-23T00:06:48.288Z,7.96
2022-10-23T00:09:18.119Z,8.04
2022-10-23T00:11:47.679Z,8.03
2022-10-23T00:14:15.266Z,8.01
2022-10-23T00:16:41.807Z,8.00
2022-10-23T00:19:08.370Z,8.04
2022-10-23T00:21:35.022Z,8.06
2022-10-23T00:24:01.716Z,7.94
2022-10-23T00:26:28.387Z,7.93
2022-10-23T00:28:55.844Z,7.94
2022-10-23T00:31:23.675Z,8.01
2022-10-23T00:33:50.952Z,7.93
2022-10-23T00:36:19.810Z,7.94
2022-10-23T00:38:47.380Z,7.92
2022-10-23T00:41:22.997Z,7.94
2022-10-23T00:44:03.894Z,7.93
2022-10-23T00:46:31.146Z,7.92
2022-10-23T00:48:59.090Z,7.84
2022-10-23T00:51:29.586Z,7.88
2022-10-23T00:54:06.670Z,7.86
2022-10-23T00:56:46.292Z,7.85
2022-10-23T00:59:13.669Z,7.82
2022-10-23T01:01:40.836Z,7.77
2022-10-23T01:04:08.596Z,7.77
2022-10-23T01:06:37.819Z,7.82
2022-10-23T01:09:07.028Z,7.81
2022-10-23T01:11:42.783Z,7.78
2022-10-23T01:14:12.376Z,7.78
2022-10-23T01:17:01.395Z,7.74
2022-10-23T01:19:36.937Z,7.77
2022-10-23T01:22:19.224Z,7.78
2022-10-23T01:24:57.839Z,7.78
2022-10-23T01:27:27.678Z,7.80
2022-10-23T01:30:03.453Z,7.78
2022-10-23T01:32:51.128Z,7.80
2022-10-23T01:35:37.928Z,7.84
2022-10-23T01:38:12.591Z,7.80
2022-10-23T01:40:48.905Z,7.87
2022-10-23T01:43:23.006Z,7.88
2022-10-23T01:45:55.080Z,7.83
2022-10-23T01:48:28.670Z,7.89
2022-10-23T01:50:59.572Z,7.88
2022-10-23T01:53:31.179Z,7.86
2022-10-23T01:56:01.182Z,7.90
2022-10-23T01:58:29.698Z,7.95
2022-10-23T02:01:01.416Z,8.00
2022-10-23T02:03:31.427Z,7.96
2022-10-23T02:05:58.168Z,7.91
2022-10-23T02:08:25.777Z,7.91
2022-10-23T02:11:12.871Z,7.86
2022-10-23T02:14:18.581Z,7.89
2022-10-23T02:16:54.513Z,7.92
2022-10-23T02:19:26.993Z,7.94
2022-10-23T02:22:01.914Z,7.98
2022-10-23T02:24:31.497Z,8.00
2022-10-23T02:27:02.722Z,7.97
2022-10-23T02:29:39.159Z,7.96
2022-10-23T02:32:09.112Z,7.95
2022-10-23T02:34:36.074Z,7.94
2022-10-23T02:37:03.467Z,7.89
2022-10-23T02:39:30.442Z,7.91
2022-10-23T02:42:22.331Z,7.96
2022-10-23T02:44:59.081Z,7.91
2022-10-23T02:47:46.021Z,7.89
2022-10-23T02:50:36.099Z,7.90
2022-10-23T02:53:15.531Z,7.85
2022-10-23T02:56:03.932Z,7.87
2022-10-23T02:58:44.958Z,7.92
2022-10-23T03:01:20.100Z,7.92
2022-10-23T03:03:54.238Z,7.92
2022-10-23T03:06:22.231Z,7.88
2022-10-23T03:09:08.197Z,7.91
2022-10-23T03:11:34.945Z,7.91
2022-10-23T03:14:01.742Z,7.93
2022-10-23T03:16:28.577Z,7.94
2022-10-23T03:18:55.582Z,7.92
2022-10-23T03:21:22.158Z,7.94
2022-10-23T03:23:48.774Z,8.00
2022-10-23T03:26:16.279Z,8.00
2022-10-23T03:28:42.828Z,7.98
2022-10-23T03:31:09.449Z,7.99
2022-10-23T03:33:36.051Z,8.04
2022-10-23T03:36:02.593Z,8.05
2022-10-23T03:38:29.192Z,8.02
2022-10-23T03:40:55.793Z,8.03
2022-10-23T03:43:22.311Z,8.04
2022-10-23T03:45:48.871Z,8.02
2022-10-23T03:48:15.856Z,8.00
2022-10-23T03:50:42.417Z,8.04
2022-10-23T03:53:08.977Z,8.05
2022-10-23T03:55:35.607Z,8.06
2022-10-23T03:58:02.153Z,8.10
2022-10-23T04:00:28.930Z,8.10
2022-10-23T04:02:55.566Z,8.08
2022-10-23T04:05:22.103Z,8.08
2022-10-23T04:07:48.695Z,8.13
2022-10-23T04:10:15.225Z,8.12
2022-10-23T04:12:42.104Z,8.12
2022-10-23T04:15:09.227Z,8.08
2022-10-23T04:17:35.772Z,8.12
2022-10-23T04:20:02.301Z,8.10
2022-10-23T04:22:28.954Z,8.17
2022-10-23T04:24:56.047Z,8.15
2022-10-23T04:27:22.914Z,8.19
2022-10-23T04:29:49.530Z,8.19
2022-10-23T04:32:16.084Z,8.20
2022-10-23T04:34:42.684Z,8.21
2022-10-23T04:37:09.250Z,8.22
2022-10-23T04:39:35.765Z,8.20
2022-10-23T04:42:02.351Z,8.24
2022-10-23T04:44:28.916Z,8.25
2022-10-23T04:46:55.442Z,8.18
2022-10-23T04:49:22.085Z,8.23
2022-10-23T04:51:48.700Z,8.25
2022-10-23T04:54:15.277Z,8.29
2022-10-23T04:56:41.910Z,8.24
2022-10-23T04:59:09.108Z,8.30
2022-10-23T05:01:35.851Z,8.30
2022-10-23T05:04:02.642Z,8.34
2022-10-23T05:06:29.217Z,8.36
2022-10-23T05:08:56.246Z,8.33
2022-10-23T05:11:23.070Z,8.40
2022-10-23T05:13:49.716Z,8.41
2022-10-23T05:16:52.109Z,8.40
2022-10-23T05:19:24.396Z,8.45
2022-10-23T05:21:55.815Z,8.47
2022-10-23T05:24:23.156Z,8.49
2022-10-23T05:26:51.799Z,8.54
2022-10-23T05:29:19.298Z,8.58
2022-10-23T05:31:46.856Z,8.59
2022-10-23T05:34:16.931Z,8.64
2022-10-23T05:36:43.656Z,8.61
2022-10-23T05:39:10.282Z,8.67
2022-10-23T05:41:36.864Z,8.68
2022-10-23T05:44:03.702Z,8.70
2022-10-23T05:46:30.262Z,8.73
2022-10-23T05:48:56.888Z,8.72
2022-10-23T05:51:23.620Z,8.73
2022-10-23T05:53:50.732Z,8.72
2022-10-23T05:56:17.876Z,8.74
2022-10-23T05:58:45.271Z,8.78
2022-10-23T06:01:14.048Z,8.81
2022-10-23T06:03:41.095Z,8.83
2022-10-23T06:06:07.830Z,8.86
2022-10-23T06:08:34.643Z,8.88
2022-10-23T06:11:11.975Z,8.93
2022-10-23T06:13:39.539Z,9.00
2022-10-23T06:16:32.351Z,9.11
2022-10-23T06:18:59.781Z,9.15
2022-10-23T06:21:26.343Z,9.15
2022-10-23T06:23:53.098Z,9.16
2022-10-23T06:26:19.746Z,9.20
2022-10-23T06:28:46.341Z,9.22
2022-10-23T06:31:15.737Z,9.25
2022-10-23T06:33:42.283Z,9.26
2022-10-23T06:36:10.651Z,9.25
2022-10-23T06:38:40.230Z,9.24
2022-10-23T06:41:12.539Z,9.22
2022-10-23T06:43:39.157Z,9.24
2022-10-23T06:46:05.786Z,9.23
2022-10-23T06:48:32.586Z,9.23
2022-10-23T06:50:59.745Z,9.22
2022-10-23T06:53:26.347Z,9.19
2022-10-23T06:55:55.374Z,9.22
2022-10-23T06:58:22.247Z,9.25
2022-10-23T07:00:48.882Z,9.28
2022-10-23T07:03:15.521Z,9.29
2022-10-23T07:05:44.766Z,9.34
2022-10-23T07:08:11.450Z,9.37
2022-10-23T07:10:38.075Z,9.43
2022-10-23T07:13:04.632Z,9.46
2022-10-23T07:15:31.202Z,9.51
2022-10-23T07:17:57.725Z,9.50
2022-10-23T07:20:24.452Z,9.53
2022-10-23T07:22:55.916Z,9.55
2022-10-23T07:25:23.243Z,9.56
2022-10-23T07:27:50.520Z,9.61
2022-10-23T07:30:17.332Z,9.67
2022-10-23T07:32:44.606Z,9.70
2022-10-23T07:37:44.964Z,9.80
2022-10-23T07:40:12.081Z,9.79
2022-10-23T07:42:38.942Z,9.84
2022-10-23T07:45:07.514Z,9.86
2022-10-23T07:47:34.393Z,9.92
2022-10-23T07:50:00.971Z,9.96
2022-10-23T07:52:30.799Z,9.95
2022-10-23T07:55:00.099Z,10.00
2022-10-23T07:57:26.706Z,10.00
2022-10-23T07:59:54.620Z,9.99
2022-10-23T08:02:21.274Z,10.01
2022-10-23T08:04:51.359Z,10.02
2022-10-23T08:07:18.004Z,10.03
2022-10-23T08:09:44.535Z,10.01
2022-10-23T08:12:11.086Z,10.04
2022-10-23T08:14:37.659Z,10.02
2022-10-23T08:17:05.256Z,10.01
2022-10-23T08:19:32.342Z,10.04
2022-10-23T08:21:58.921Z,10.07
2022-10-23T08:24:25.538Z,10.05
2022-10-23T08:26:52.112Z,10.04
2022-10-23T08:29:18.732Z,10.04
2022-10-23T08:31:45.301Z,10.08
2022-10-23T08:34:12.041Z,10.09
2022-10-23T08:36:39.343Z,10.11
2022-10-23T08:39:06.660Z,10.13
2022-10-23T08:41:38.643Z,10.19
2022-10-23T08:44:31.591Z,10.22
2022-10-23T08:47:17.932Z,10.28
2022-10-23T08:49:47.181Z,10.30
2022-10-23T08:52:30.052Z,10.34
2022-10-23T08:54:57.128Z,10.40
2022-10-23T08:57:26.229Z,10.42
2022-10-23T08:59:58.873Z,10.48
2022-10-23T09:02:25.397Z,10.51
2022-10-23T09:04:54.089Z,10.53
2022-10-23T09:07:45.651Z,10.61
2022-10-23T09:10:30.756Z,10.75
2022-10-23T09:13:12.370Z,10.83
2022-10-23T09:15:47.262Z,10.92
2022-10-23T09:18:17.637Z,10.94
2022-10-23T09:20:46.332Z,10.99
2022-10-23T09:23:17.956Z,11.02
2022-10-23T09:25:46.550Z,11.04
2022-10-23T09:28:20.953Z,10.98
2022-10-23T09:30:48.921Z,11.00
2022-10-23T09:33:27.000Z,10.99
2022-10-23T09:36:19.682Z,10.95
2022-10-23T09:38:46.160Z,10.93
2022-10-23T09:41:37.240Z,10.93
2022-10-23T09:44:22.362Z,10.89
2022-10-23T09:46:54.954Z,10.92
2022-10-23T09:49:25.475Z,10.90
2022-10-23T09:51:59.407Z,10.94
2022-10-23T09:54:26.316Z,10.94
2022-10-23T09:56:55.000Z,10.93
2022-10-23T09:59:30.103Z,10.98
2022-10-23T10:02:03.975Z,10.95
2022-10-23T10:04:40.532Z,10.95
2022-10-23T10:07:19.933Z,10.95
2022-10-23T10:09:46.830Z,10.93
2022-10-23T10:12:34.612Z,10.97
2022-10-23T10:15:31.964Z,10.98
2022-10-23T10:18:13.608Z,10.97
2022-10-23T10:21:07.816Z,11.00
2022-10-23T10:23:43.557Z,10.99
2022-10-23T10:26:32.102Z,10.98
2022-10-23T10:29:25.802Z,10.99
2022-10-23T10:31:54.935Z,11.00
2022-10-23T10:34:27.496Z,11.02
2022-10-23T10:37:10.192Z,11.09
2022-10-23T10:39:52.694Z,11.15
2022-10-23T10:42:38.195Z,11.27
2022-10-23T10:45:54.570Z,11.36
2022-10-23T10:48:48.734Z,11.44
2022-10-23T10:51:31.644Z,11.64
2022-10-23T10:54:14.744Z,12.24
2022-10-23T10:56:43.794Z,12.55
2022-10-23T10:59:23.406Z,12.70
2022-10-23T11:02:02.283Z,14.14
2022-10-23T11:04:28.907Z,15.26
2022-10-23T11:06:57.463Z,14.69
2022-10-23T11:09:29.464Z,14.78
2022-10-23T11:11:56.359Z,14.42
2022-10-23T11:14:25.779Z,13.79
2022-10-23T11:17:16.918Z,13.26
2022-10-23T11:19:53.985Z,13.94
2022-10-23T11:22:40.935Z,15.47
2022-10-23T11:25:38.242Z,16.60
2022-10-23T11:28:39.571Z,15.66
2022-10-23T11:31:25.342Z,15.48
2022-10-23T11:34:20.033Z,14.65
2022-10-23T11:36:46.533Z,13.79
2022-10-23T11:39:19.096Z,13.63
2022-10-23T11:41:55.285Z,13.37
2022-10-23T11:44:36.744Z,13.13
2022-10-23T11:47:23.377Z,13.06
2022-10-23T11:49:49.909Z,12.90
2022-10-23T11:52:25.134Z,13.12
2022-10-23T11:55:02.094Z,13.00
2022-10-23T11:57:28.743Z,12.99
2022-10-23T11:59:57.461Z,14.05
2022-10-23T12:02:34.360Z,14.33
2022-10-23T12:05:06.776Z,14.79
2022-10-23T12:07:40.412Z,15.81
2022-10-23T12:10:29.944Z,15.29
2022-10-23T12:12:59.388Z,14.15
2022-10-23T12:15:26.797Z,13.47
2022-10-23T12:17:55.453Z,13.29
2022-10-23T12:20:46.620Z,13.11
2022-10-23T12:23:24.220Z,13.06
2022-10-23T12:26:11.313Z,13.06
2022-10-23T12:28:47.176Z,13.10
2022-10-23T12:31:31.952Z,13.43
2022-10-23T12:35:00.360Z,15.14
2022-10-23T12:37:44.198Z,17.07
2022-10-23T12:40:12.122Z,15.79
2022-10-23T12:42:39.057Z,14.56
2022-10-23T12:45:19.314Z,14.12
2022-10-23T12:47:47.437Z,13.70
2022-10-23T12:50:20.599Z,13.49
2022-10-23T12:53:04.266Z,13.91
2022-10-23T12:55:46.702Z,16.31
2022-10-23T12:58:32.015Z,16.77
2022-10-23T13:01:00.932Z,15.52
2022-10-23T13:03:29.774Z,14.56
2022-10-23T13:05:59.087Z,14.01
2022-10-23T13:08:34.041Z,13.64
2022-10-23T13:11:01.148Z,13.31
2022-10-23T13:13:28.236Z,13.09
2022-10-23T13:15:54.867Z,13.05
2022-10-23T13:18:21.411Z,12.90
2022-10-23T13:20:53.659Z,12.83
2022-10-23T13:23:34.630Z,12.72
2022-10-23T13:26:21.351Z,12.63
2022-10-23T13:28:48.354Z,12.50
2022-10-23T13:31:14.888Z,12.47
2022-10-23T13:33:42.686Z,12.42
2022-10-23T13:36:09.206Z,12.37
2022-10-23T13:38:38.165Z,12.33
2022-10-23T13:41:06.843Z,12.27
2022-10-23T13:43:34.313Z,12.22
2022-10-23T13:46:01.621Z,12.16
2022-10-23T13:48:28.627Z,12.08
2022-10-23T13:51:06.342Z,12.05
2022-10-23T13:53:33.132Z,12.06
2022-10-23T13:55:59.769Z,11.98
2022-10-23T13:58:26.416Z,11.96
2022-10-23T14:00:53.266Z,11.93
2022-10-23T14:03:24.209Z,11.88
2022-10-23T14:05:51.629Z,11.78
2022-10-23T14:08:18.571Z,11.68
2022-10-23T14:10:45.738Z,11.65
2022-10-23T14:13:12.302Z,11.56
2022-10-23T14:15:39.151Z,11.49
2022-10-23T14:18:08.260Z,11.46
2022-10-23T14:20:35.351Z,11.40
2022-10-23T14:23:01.898Z,11.38
2022-10-23T14:25:28.431Z,11.36
2022-10-23T14:30:26.494Z,11.28
2022-10-23T14:32:53.034Z,11.20
2022-10-23T14:35:19.846Z,11.17
2022-10-23T14:37:46.750Z,11.16
2022-10-23T14:40:13.630Z,11.17
2022-10-23T14:42:40.235Z,11.12
2022-10-23T14:45:07.308Z,11.12
2022-10-23T14:47:33.844Z,11.11
2022-10-23T14:50:00.458Z,11.02
2022-10-23T14:52:27.058Z,11.07
2022-10-23T14:54:53.933Z,11.00
2022-10-23T14:57:22.152Z,11.03
2022-10-23T14:59:49.741Z,10.95
2022-10-23T15:02:17.604Z,10.95
2022-10-23T15:04:44.580Z,10.98
2022-10-23T15:07:11.164Z,10.93
2022-10-23T15:09:39.397Z,10.94
2022-10-23T15:12:06.287Z,10.90
2022-10-23T15:14:32.993Z,10.94
2022-10-23T15:16:59.586Z,10.90
2022-10-23T15:19:27.448Z,10.92
2022-10-23T15:21:54.115Z,10.92
2022-10-23T15:24:23.858Z,10.90
2022-10-23T15:26:51.793Z,10.91
2022-10-23T15:29:19.399Z,10.88
2022-10-23T15:31:52.331Z,10.86
2022-10-23T15:34:24.466Z,10.85
2022-10-23T15:36:52.343Z,10.85
2022-10-23T15:39:23.355Z,10.85
2022-10-23T15:41:55.509Z,10.84
2022-10-23T15:44:24.358Z,10.87
2022-10-23T15:46:51.935Z,10.86
2022-10-23T15:49:19.087Z,10.85
2022-10-23T15:51:46.726Z,10.88
2022-10-23T15:54:19.214Z,10.84
2022-10-23T15:56:48.218Z,10.83
2022-10-23T15:59:15.396Z,10.83
2022-10-23T16:01:42.330Z,10.86
2022-10-23T16:04:09.351Z,10.84
2022-10-23T16:06:35.939Z,10.84
2022-10-23T16:09:03.165Z,10.86
2022-10-23T16:11:34.025Z,10.82
2022-10-23T16:14:00.791Z,10.78
2022-10-23T16:16:28.605Z,10.78
2022-10-23T16:18:55.614Z,10.83
2022-10-23T16:21:24.873Z,10.81
2022-10-23T16:23:52.859Z,10.79
2022-10-23T16:26:19.957Z,10.83
2022-10-23T16:28:47.353Z,10.81
2022-10-23T16:31:20.524Z,10.82
2022-10-23T16:33:48.550Z,10.82
2022-10-23T16:36:16.265Z,10.84
2022-10-23T16:38:42.984Z,10.85
2022-10-23T16:41:09.585Z,10.85
2022-10-23T16:43:36.201Z,10.86
2022-10-23T16:46:15.142Z,10.83
2022-10-23T16:48:42.440Z,10.86
2022-10-23T16:51:14.549Z,10.85
2022-10-23T16:53:42.360Z,10.84
2022-10-23T16:56:11.126Z,10.82
2022-10-23T16:58:40.920Z,10.84
2022-10-23T17:01:20.613Z,10.85
2022-10-23T17:03:49.896Z,10.82
2022-10-23T17:06:19.915Z,10.83
2022-10-23T17:08:47.079Z,10.81
2022-10-23T17:11:28.086Z,10.79
2022-10-23T17:13:59.332Z,10.80
2022-10-23T17:16:38.379Z,10.79
2022-10-23T17:19:16.010Z,10.79
2022-10-23T17:21:48.049Z,10.83
2022-10-23T17:24:14.744Z,10.80
2022-10-23T17:26:41.527Z,10.82
2022-10-23T17:29:10.279Z,10.78
2022-10-23T17:31:39.626Z,10.78
2022-10-23T17:34:10.443Z,10.79
2022-10-23T17:36:40.370Z,10.78
2022-10-23T17:39:08.377Z,10.76
2022-10-23T17:41:35.366Z,10.75
2022-10-23T17:44:02.591Z,10.74
2022-10-23T17:46:29.929Z,10.74
2022-10-23T17:48:58.039Z,10.75
2022-10-23T17:51:26.650Z,10.75
2022-10-23T17:53:55.947Z,10.74
2022-10-23T17:56:27.590Z,10.74
2022-10-23T17:58:56.341Z,10.76
2022-10-23T18:01:25.494Z,10.75
2022-10-23T18:03:53.504Z,10.75
2022-10-23T18:06:28.882Z,10.73
2022-10-23T18:08:56.748Z,10.74
2022-10-23T18:11:29.119Z,10.75
2022-10-23T18:13:57.888Z,10.76
2022-10-23T18:16:25.241Z,10.77
2022-10-23T18:18:52.697Z,10.77
2022-10-23T18:21:24.349Z,10.78
2022-10-23T18:23:52.128Z,10.77
2022-10-23T18:26:24.805Z,10.78
2022-10-23T18:28:53.255Z,10.78
2022-10-23T18:31:20.761Z,10.78
2022-10-23T18:33:47.436Z,10.76
2022-10-23T18:36:16.111Z,10.76
2022-10-23T18:38:43.712Z,10.78
2022-10-23T18:41:10.621Z,10.75
2022-10-23T18:43:43.666Z,10.75
2022-10-23T18:46:13.787Z,10.77
2022-10-23T18:48:41.164Z,10.76
2022-10-23T18:51:15.760Z,10.75
2022-10-23T18:53:45.855Z,10.81
2022-10-23T18:56:16.338Z,10.79
2022-10-23T18:58:43.337Z,10.79
2022-10-23T19:01:10.062Z,10.76
2022-10-23T19:03:36.806Z,10.74
2022-10-23T19:06:06.480Z,10.76
2022-10-23T19:08:39.405Z,10.73
2022-10-23T19:11:07.454Z,10.74
2022-10-23T19:13:39.023Z,10.72
2022-10-23T19:16:23.216Z,10.68
2022-10-23T19:19:02.494Z,10.66
2022-10-23T19:21:37.011Z,10.68
2022-10-23T19:24:08.890Z,10.63
2022-10-23T19:26:38.012Z,10.67
2022-10-23T19:29:08.115Z,10.68
2022-10-23T19:31:34.848Z,10.66
2022-10-23T19:34:01.516Z,10.68
2022-10-23T19:36:28.046Z,10.65
2022-10-23T19:38:54.581Z,10.66
2022-10-23T19:41:21.521Z,10.66
2022-10-23T19:43:48.066Z,10.66
2022-10-23T19:46:14.744Z,10.69
2022-10-23T19:48:46.515Z,10.66
2022-10-23T19:51:13.603Z,10.67
2022-10-23T19:53:42.084Z,10.68
2022-10-23T19:56:11.486Z,10.68
2022-10-23T19:58:38.701Z,10.68
2022-10-23T20:01:10.512Z,10.67
2022-10-23T20:03:37.959Z,10.72
2022-10-23T20:06:04.632Z,10.72
2022-10-23T20:08:34.294Z,10.74
2022-10-23T20:11:01.905Z,10.71
2022-10-23T20:13:28.671Z,10.71
2022-10-23T20:15:55.451Z,10.70
2022-10-23T20:18:22.047Z,10.72
2022-10-23T20:20:48.592Z,10.74
2022-10-23T20:23:15.216Z,10.77
2022-10-23T20:25:41.938Z,10.75
2022-10-23T20:28:10.355Z,10.75
2022-10-23T20:30:41.315Z,10.73
2022-10-23T20:33:10.130Z,10.76
2022-10-23T20:35:43.217Z,10.77
2022-10-23T20:38:10.450Z,10.77
2022-10-23T20:40:39.855Z,10.75
2022-10-23T20:43:06.616Z,10.76
2022-10-23T20:45:34.106Z,10.77
2022-10-23T20:48:00.700Z,10.79
2022-10-23T20:50:27.314Z,10.78
2022-10-23T20:52:53.883Z,10.78
2022-10-23T20:55:20.473Z,10.79
2022-10-23T20:57:49.850Z,10.76
2022-10-23T21:00:17.011Z,10.79
2022-10-23T21:02:47.020Z,10.75
2022-10-23T21:05:15.228Z,10.75
2022-10-23T21:07:41.804Z,10.74
2022-10-23T21:10:08.714Z,10.76
2022-10-23T21:12:35.230Z,10.75
2022-10-23T21:15:01.786Z,10.76
2022-10-23T21:17:29.311Z,10.77
2022-10-23T21:19:55.929Z,10.77
2022-10-23T21:22:22.507Z,10.76
2022-10-23T21:24:49.050Z,10.77
2022-10-23T21:27:15.602Z,10.78
2022-10-23T21:29:42.810Z,10.75
2022-10-23T21:32:09.403Z,10.74
2022-10-23T21:34:35.988Z,10.71
2022-10-23T21:37:18.365Z,10.70
2022-10-23T21:39:46.142Z,10.70
2022-10-23T21:42:14.207Z,10.71
2022-10-23T21:44:40.748Z,10.72
2022-10-23T21:47:07.296Z,10.74
2022-10-23T21:49:34.095Z,10.73
2022-10-23T21:52:00.648Z,10.74
2022-10-23T21:54:27.331Z,10.76
2022-10-23T21:56:54.253Z,10.79
2022-10-23T21:59:24.204Z,10.79
2022-10-23T22:01:51.713Z,10.76
2022-10-23T22:04:19.733Z,10.78
2022-10-23T22:06:48.402Z,10.77
2022-10-23T22:09:18.857Z,10.74
2022-10-23T22:11:45.524Z,10.78
2022-10-23T22:14:12.099Z,10.73
2022-10-23T22:16:38.676Z,10.73
2022-10-23T22:19:05.233Z,10.76
2022-10-23T22:21:32.074Z,10.76
2022-10-23T22:24:00.316Z,10.76
2022-10-23T22:26:29.758Z,10.77
2022-10-23T22:28:59.421Z,10.77
2022-10-23T22:31:29.911Z,10.77
2022-10-23T22:33:56.725Z,10.76
2022-10-23T22:36:23.624Z,10.76
2022-10-23T22:38:50.237Z,10.76
2022-10-23T22:41:17.428Z,10.75
2022-10-23T22:43:44.744Z,10.72
2022-10-23T22:46:18.805Z,10.75
2022-10-23T22:48:46.335Z,10.71
2022-10-23T22:51:14.830Z,10.72
2022-10-23T22:53:42.292Z,10.76
2022-10-23T22:56:12.869Z,10.73
2022-10-23T22:58:39.697Z,10.73
2022-10-23T23:01:10.504Z,10.73
2022-10-23T23:03:37.827Z,10.76
2022-10-23T23:06:06.494Z,10.77
2022-10-23T23:08:34.469Z,10.79
2022-10-23T23:11:01.799Z,10.81
2022-10-23T23:13:28.563Z,10.79
2022-10-23T23:15:55.924Z,10.81
2022-10-23T23:18:22.924Z,10.80
2022-10-23T23:20:50.066Z,10.79
2022-10-23T23:23:17.147Z,10.84
2022-10-23T23:25:45.762Z,10.82
2022-10-23T23:28:14.209Z,10.84
2022-10-23T23:30:41.550Z,10.78
2022-10-23T23:33:09.251Z,10.79
2022-10-23T23:35:40.428Z,10.84
2022-10-23T23:38:07.101Z,10.85
2022-10-23T23:40:33.828Z,10.80
2022-10-23T23:43:00.473Z,10.84
2022-10-23T23:45:27.109Z,10.85
2022-10-23T23:47:53.686Z,10.82
2022-10-23T23:50:21.070Z,10.82
2022-10-23T23:52:47.725Z,10.85
2022-10-23T23:55:14.275Z,10.84
2022-10-23T23:57:40.876Z,10.83
